메인 페이지
METAR-TAF:

METAR-TAF

공항 :

브루나이 국제공항

브루나이, 브루나이

위도: 04-56N, 경도: 114-56E, 고도: 22m

현재 날씨관측

예보는 35분 전, 10:00시(UTC)에 발표되었습니다.
2kt
온도 27°C
습도 89%
기압 1010 hPa
시정 10km 이상
고도 1500ft 상공 구름 조금
고도 1600ft 상공 구름 조금, 적란운.
고도 14000ft 상공 구름 많음

METAR: WBSB 161000Z 10002KT 9999 FEW015 FEW016CB BKN140 27/25 Q1010 NOSIG

시각: 18:35 (10:35 UTC)

예보

예보는 5 시간 35분 전, 05:00시(UTC)에 발표되었습니다.
예보 대상 시간: 16일 06시부터 17일 12시까지 (UTC)
10kt
시정 10km 이상
고도 1500ft 상공 구름 보통
고도 1600ft 상공 구름 조금, 적란운.
일시적
16일 06시부터 16일 08시까지 (UTC)
시정: 7000m
약한소나기, 뇌우, 약한비
전환 중
16일 12시부터 16일 14시까지 (UTC)
남서5kt

TAF: WBSB 160500Z 1606/1712 26010KT 9999 SCT015 FEW016CB TEMPO 1606/1608 7000 -SHRA -TSRA BECMG 1612/1614 22005KT

4,000개 이상의 공항 관측 자료 및 예보 (METAR 및 TAF 보고).

지도상에서 검색 가능한 기상관측소가 노란 점과 빨간 점으로 표시되어 있습니다.

기상관측소 명을 보려면 표시 위로 마우스를 이동하세요.

날씨 관측과 예보를 보려면 클릭하세요.

지도 변경 : 확대하려면 엑스 표시가 있는 녹색 버튼, 축소하려면 빼기 표시가 있는 녹색 버튼, 다음 페이지의 지도를 보려면 녹색 화살표를 클릭하세요.


METAR-TAF: